Chadstone Weather > Observations for 03/03/21

Select Day:



Observations
Time Temp Hum DP Wind Gust Dir Rain >9am Press
C % C kph kph mm hPa
00:00 14.9 64 8.2 5.2 11.2 SE 0.0 1004.0
00:10 14.8 64 8.1 4.3 11.2 SSE 0.0 1004.0
00:20 14.8 64 8.1 5.8 18.4 S 0.0 1003.9
00:30 14.8 64 8.1 5.6 15.8 SSE 0.0 1003.8
00:40 14.7 64 8.0 4.6 12.2 WSW 0.0 1003.7
00:50 14.7 64 8.0 5.4 14.8 SSE 0.0 1003.6
01:00 14.7 63 7.7 5.9 14.8 SSE 0.0 1003.7
01:10 14.7 63 7.7 3.5 12.2 SSE 0.0 1003.7
01:20 14.7 63 7.7 1.4 7.2 SE 0.0 1003.6
01:30 14.7 63 7.7 4.6 15.8 SSE 0.0 1003.7
01:40 14.7 64 8.0 6.2 15.8 S 0.0 1003.7
01:50 14.7 65 8.2 7.6 18.4 SSE 0.0 1003.8
02:00 14.7 66 8.4 8.2 17.3 SSE 0.0 1003.6
02:10 14.7 67 8.6 7.2 17.3 SE 0.0 1003.5
02:20 14.7 67 8.6 4.5 15.8 SSE 0.0 1003.4
02:30 14.7 68 8.9 5.0 11.2 SE 0.0 1003.5
02:40 14.7 68 8.9 4.9 13.3 ESE 0.0 1003.3
02:50 14.7 68 8.9 4.3 14.8 SSE 0.0 1003.3
03:00 14.7 68 8.9 3.8 13.3 SSE 0.0 1003.2
03:10 14.7 68 8.9 3.2 11.2 SSE 0.0 1003.2
03:20 14.7 68 8.9 4.2 13.3 SSE 0.0 1003.5
03:30 14.8 68 9.0 5.8 12.2 SE 0.0 1003.3
03:40 14.8 68 9.0 5.9 13.3 SSE 0.0 1003.2
03:50 14.8 68 9.0 3.3 12.2 SSE 0.0 1003.1
04:00 14.8 68 9.0 4.2 11.2 SSE 0.0 1002.9
04:10 14.7 68 8.9 3.7 9.7 SSE 0.0 1002.7
04:20 14.7 67 8.6 3.6 11.2 SSE 0.0 1002.6
04:30 14.7 67 8.6 4.5 12.2 SE 0.0 1002.4
04:40 14.7 66 8.4 3.9 8.6 SSE 0.0 1002.4
04:50 14.7 65 8.2 2.8 7.2 SSE 0.0 1002.3
05:00 14.8 65 8.3 1.7 6.1 E 0.0 1002.3
05:10 14.7 65 8.2 2.3 6.1 SSE 0.0 1002.2
05:20 14.7 65 8.2 3.0 7.2 SSE 0.0 1002.1
05:30 14.7 65 8.2 3.0 8.6 SSE 0.0 1002.3
05:40 14.7 65 8.2 3.5 11.2 SSE 0.0 1002.6
05:50 14.6 65 8.1 3.3 11.2 S 0.0 1003.1
06:00 14.7 66 8.4 1.6 8.6 SSE 0.0 1003.3
06:10 14.7 66 8.4 2.3 9.7 S 0.0 1003.4
06:20 14.7 67 8.6 2.4 8.6 S 0.0 1003.6
06:30 14.7 68 8.9 4.4 14.8 S 0.0 1003.8
06:40 14.7 69 9.1 4.6 14.8 SE 0.0 1004.0
06:50 14.8 70 9.4 1.0 7.2 SE 0.0 1004.2
07:00 14.8 70 9.4 1.8 7.2 SSE 0.0 1004.3
07:10 14.7 70 9.3 1.8 12.2 SE 0.0 1004.5
07:20 14.7 70 9.3 3.7 12.2 S 0.0 1004.6
07:30 14.6 70 9.2 5.7 11.2 SSE 0.0 1004.8
07:40 14.7 70 9.3 4.0 13.3 SSE 0.0 1005.0
07:50 14.6 69 9.0 2.9 9.7 S 0.0 1005.1
08:00 14.7 70 9.3 3.4 9.7 SSE 0.0 1005.2
08:10 14.7 71 9.5 2.8 9.7 SE 0.0 1005.4
08:20 14.7 73 9.9 2.6 9.7 S 0.0 1005.4
08:30 14.7 74 10.1 2.2 14.8 SW 0.0 1005.6
08:40 14.5 75 10.1 3.1 12.2 S 0.0 1005.5
08:50 14.7 76 10.5 2.0 7.2 SE 0.0 1005.5
09:00 15.1 75 10.7 3.3 7.2 SE 0.0 1005.3
09:10 15.3 75 10.9 4.0 9.7 SSE 0.0 1005.4
09:20 15.3 73 10.5 5.4 13.3 S 0.0 1005.5
09:30 15.5 69 9.8 6.9 14.8 SSE 0.0 1005.7
09:40 15.7 66 9.4 5.5 14.8 SSE 0.0 1005.5
09:50 16.0 65 9.4 4.9 14.8 S 0.0 1005.6
10:00 15.9 66 9.6 5.8 18.4 SSE 0.0 1005.7
10:10 16.2 65 9.6 5.0 13.3 S 0.0 1005.8
10:20 16.6 64 9.8 5.3 13.3 SSW 0.0 1005.9
10:30 16.6 60 8.8 2.4 11.2 NW 0.0 1005.9
10:40 16.6 59 8.6 2.4 8.6 SW 0.0 1006.1
10:50 16.8 59 8.7 2.2 8.6 WNW 0.0 1006.0
11:00 16.9 57 8.3 2.6 15.8 S 0.0 1006.1
11:10 17.1 55 8.0 3.0 14.8 S 0.0 1006.0
11:20 16.8 58 8.5 5.1 18.4 SSE 0.0 1006.0
11:30 16.8 58 8.5 1.0 8.6 S 0.0 1005.8
11:40 16.8 56 8.0 2.1 14.8 SE 0.0 1005.9
11:50 17.0 54 7.6 3.3 14.8 WSW 0.0 1006.0
12:00 17.2 53 7.5 4.3 14.8 SSE 0.0 1005.9
12:10 17.6 53 7.9 3.2 11.2 SSW 0.0 1005.8
12:20 17.9 53 8.2 3.0 13.3 SSW 0.0 1005.8
12:30 18.5 52 8.5 2.1 8.6 SSW 0.0 1005.7
12:40 18.4 52 8.4 3.6 14.8 SSW 0.0 1005.6
12:50 18.3 55 9.1 3.5 12.2 SW 0.0 1005.5
13:00 18.2 55 9.0 3.9 11.2 SW 0.0 1005.3
13:10 18.4 55 9.2 3.7 13.3 S 0.0 1005.3
13:20 18.4 56 9.5 3.4 13.3 SSW 0.0 1005.3
13:30 18.7 56 9.8 3.3 9.7 SW 0.0 1005.2
13:40 18.4 56 9.5 3.0 11.2 S 0.0 1005.2
13:50 18.4 56 9.5 3.8 11.2 W 0.0 1005.2
14:00 18.1 55 8.9 3.9 11.2 SE 0.0 1005.3
14:10 17.8 54 8.4 3.7 13.3 SW 0.0 1005.1
14:20 18.1 55 8.9 3.1 11.2 SW 0.0 1005.0
14:30 18.1 55 8.9 2.4 8.6 SW 0.0 1005.1
14:40 18.0 55 8.8 3.3 9.7 SSW 0.0 1005.1
14:50 18.2 56 9.3 2.9 12.2 W 0.0 1004.9
15:00 18.3 56 9.4 3.9 12.2 WSW 0.0 1004.8
15:10 18.5 55 9.3 2.6 22.0 ENE 0.0 1004.6
15:20 18.3 55 9.1 4.3 11.2 SSW 0.0 1004.4
15:30 18.5 54 9.0 2.3 14.8 SSW 0.0 1004.2
15:40 18.1 55 8.9 3.4 13.3 SSW 0.0 1004.2
15:50 17.8 61 10.2 3.5 12.2 NW 0.0 1004.4
16:00 17.5 62 10.1 5.1 13.3 SSW 0.0 1004.3
16:10 17.3 62 10.0 4.0 13.3 WSW 0.0 1004.1
16:20 17.3 61 9.7 4.5 15.8 WSW 0.0 1004.3
16:30 17.5 58 9.2 4.1 13.3 WSW 0.0 1004.0
16:40 17.6 58 9.2 4.6 12.2 SW 0.0 1004.0
16:50 17.8 55 8.6 3.0 8.6 ENE 0.0 1004.0
17:00 17.5 57 8.9 3.6 12.2 SSW 0.0 1004.1
17:10 17.2 62 9.9 4.4 15.8 SW 0.0 1004.1
17:20 17.3 61 9.7 4.5 15.8 SW 0.0 1003.9
17:30 17.3 60 9.5 5.0 14.8 SW 0.0 1003.9
17:40 17.5 61 9.9 4.3 13.3 NW 0.0 1003.9
17:50 17.2 61 9.6 3.0 15.8 WNW 0.0 1003.8
18:00 16.9 62 9.6 2.8 9.7 SSW 0.0 1003.8
18:10 17.0 61 9.4 2.9 13.3 WSW 0.0 1003.8
18:20 17.0 62 9.7 4.0 13.3 S 0.0 1003.9
18:30 17.3 61 9.7 5.2 27.0 SSW 0.0 1004.3
18:40 17.1 60 9.3 3.5 9.7 S 0.0 1004.5
18:50 16.9 61 9.3 3.5 15.8 SE 0.0 1004.6
19:00 16.8 60 9.0 6.3 17.3 S 0.0 1004.6
19:10 16.6 59 8.6 5.2 14.8 SW 0.0 1004.4
19:20 16.4 59 8.4 2.1 8.6 SW 0.0 1004.5
19:30 16.3 59 8.3 4.9 17.3 SW 0.0 1004.4
19:40 16.2 61 8.7 2.8 18.4 S 0.0 1004.4
19:50 16.1 62 8.8 4.8 12.2 SSE 0.0 1004.4
20:00 16.0 63 9.0 1.2 7.2 SSW 0.0 1004.4
20:10 15.9 65 9.3 1.3 11.2 SSW 0.0 1004.3
20:20 15.8 67 9.7 3.4 12.2 SW 0.0 1004.3
20:30 15.7 67 9.6 3.6 14.8 S 0.0 1004.4
20:40 15.6 68 9.7 3.1 11.2 S 0.0 1004.5
20:50 15.5 69 9.8 3.2 12.2 S 0.0 1004.5
21:00 15.4 69 9.7 2.2 8.6 S 0.0 1004.7
21:10 15.3 69 9.7 2.5 11.2 SSE 0.0 1004.8
21:20 15.3 69 9.7 1.3 6.1 S 0.0 1004.7
21:30 15.2 70 9.8 1.4 6.1 SE 0.0 1004.5
21:40 15.2 70 9.8 1.6 5.0 SSE 0.0 1004.4
21:50 15.0 70 9.6 2.4 8.6 S 0.0 1004.3
22:00 15.0 71 9.8 1.8 6.1 SSW 0.0 1004.2
22:10 15.0 72 10.0 0.9 5.0 S 0.0 1004.2
22:20 15.0 72 10.0 1.8 5.0 NE 0.0 1004.1
22:30 15.0 73 10.2 0.8 6.1 SSW 0.0 1004.0
22:40 15.0 73 10.2 1.2 6.1 SSE 0.0 1004.2
22:50 14.9 74 10.3 0.0 0.0 N 0.0 1004.1
23:00 14.8 74 10.2 0.0 2.5 SSW 0.0 1004.0
23:10 14.9 75 10.5 0.4 3.6 S 0.0 1003.8
23:20 14.9 75 10.5 0.2 3.6 SW 0.0 1003.7
23:30 14.7 75 10.3 0.0 1.1 S 0.0 1003.6
23:40 14.6 75 10.2 0.0 2.5 WSW 0.0 1003.6
23:50 14.6 76 10.4 0.1 2.5 SSW 0.0 1003.7